sensor_id;sensor_type;location;lat;lon;timestamp;P1;durP1;ratioP1;P2;durP2;ratioP2
16246;SDS011;8231;50.866;7.944;2023-08-24T00:01:17;5.55;;;4.40;;
16246;SDS011;8231;50.866;7.944;2023-08-24T00:03:45;4.82;;;4.43;;
16246;SDS011;8231;50.866;7.944;2023-08-24T00:06:16;4.82;;;4.30;;
16246;SDS011;8231;50.866;7.944;2023-08-24T00:08:44;5.85;;;4.13;;
16246;SDS011;8231;50.866;7.944;2023-08-24T00:11:13;5.32;;;4.80;;
16246;SDS011;8231;50.866;7.944;2023-08-24T00:13:43;7.03;;;4.95;;
16246;SDS011;8231;50.866;7.944;2023-08-24T00:16:15;4.35;;;3.95;;
16246;SDS011;8231;50.866;7.944;2023-08-24T00:18:43;6.38;;;4.63;;
16246;SDS011;8231;50.866;7.944;2023-08-24T00:21:12;5.40;;;4.70;;
16246;SDS011;8231;50.866;7.944;2023-08-24T00:23:43;5.55;;;4.55;;
16246;SDS011;8231;50.866;7.944;2023-08-24T00:26:11;6.47;;;5.05;;
16246;SDS011;8231;50.866;7.944;2023-08-24T00:28:39;5.82;;;4.43;;
16246;SDS011;8231;50.866;7.944;2023-08-24T00:31:09;4.97;;;4.40;;
16246;SDS011;8231;50.866;7.944;2023-08-24T00:33:38;4.90;;;4.20;;
16246;SDS011;8231;50.866;7.944;2023-08-24T00:36:07;5.78;;;5.28;;
16246;SDS011;8231;50.866;7.944;2023-08-24T00:38:35;4.10;;;3.80;;
16246;SDS011;8231;50.866;7.944;2023-08-24T00:41:04;4.15;;;3.85;;
16246;SDS011;8231;50.866;7.944;2023-08-24T00:43:32;5.45;;;4.93;;
16246;SDS011;8231;50.866;7.944;2023-08-24T00:46:02;4.75;;;4.35;;
16246;SDS011;8231;50.866;7.944;2023-08-24T00:48:32;4.97;;;4.25;;
16246;SDS011;8231;50.866;7.944;2023-08-24T00:51:01;5.45;;;4.00;;
16246;SDS011;8231;50.866;7.944;2023-08-24T00:53:31;4.63;;;4.22;;
16246;SDS011;8231;50.866;7.944;2023-08-24T00:56:00;4.50;;;4.20;;
16246;SDS011;8231;50.866;7.944;2023-08-24T00:58:28;4.68;;;4.28;;
16246;SDS011;8231;50.866;7.944;2023-08-24T01:00:57;5.30;;;4.80;;
16246;SDS011;8231;50.866;7.944;2023-08-24T01:03:26;5.18;;;4.55;;
16246;SDS011;8231;50.866;7.944;2023-08-24T01:05:55;5.35;;;4.95;;
16246;SDS011;8231;50.866;7.944;2023-08-24T01:08:24;5.68;;;4.72;;
16246;SDS011;8231;50.866;7.944;2023-08-24T01:10:55;4.45;;;4.15;;
16246;SDS011;8231;50.866;7.944;2023-08-24T01:13:30;5.40;;;4.90;;
16246;SDS011;8231;50.866;7.944;2023-08-24T01:16:08;4.97;;;4.57;;
16246;SDS011;8231;50.866;7.944;2023-08-24T01:18:40;4.30;;;4.00;;
16246;SDS011;8231;50.866;7.944;2023-08-24T01:21:12;5.40;;;4.45;;
16246;SDS011;8231;50.866;7.944;2023-08-24T01:23:43;6.82;;;4.43;;
16246;SDS011;8231;50.866;7.944;2023-08-24T01:26:18;4.50;;;4.10;;
16246;SDS011;8231;50.866;7.944;2023-08-24T01:28:48;4.95;;;4.50;;
16246;SDS011;8231;50.866;7.944;2023-08-24T01:31:17;4.85;;;4.45;;
16246;SDS011;8231;50.866;7.944;2023-08-24T01:33:47;4.57;;;4.18;;
16246;SDS011;8231;50.866;7.944;2023-08-24T01:36:16;5.22;;;4.80;;
16246;SDS011;8231;50.866;7.944;2023-08-24T01:38:46;4.70;;;4.30;;
16246;SDS011;8231;50.866;7.944;2023-08-24T01:41:24;6.60;;;4.80;;
16246;SDS011;8231;50.866;7.944;2023-08-24T01:43:55;5.88;;;4.10;;
16246;SDS011;8231;50.866;7.944;2023-08-24T01:46:28;5.75;;;4.55;;
16246;SDS011;8231;50.866;7.944;2023-08-24T01:48:58;5.38;;;4.97;;
16246;SDS011;8231;50.866;7.944;2023-08-24T01:51:28;5.00;;;4.30;;
16246;SDS011;8231;50.866;7.944;2023-08-24T01:53:57;5.03;;;4.63;;
16246;SDS011;8231;50.866;7.944;2023-08-24T01:56:27;4.63;;;4.22;;
16246;SDS011;8231;50.866;7.944;2023-08-24T01:58:55;5.20;;;4.70;;
16246;SDS011;8231;50.866;7.944;2023-08-24T02:01:24;4.63;;;4.30;;
16246;SDS011;8231;50.866;7.944;2023-08-24T02:03:52;7.18;;;4.65;;
16246;SDS011;8231;50.866;7.944;2023-08-24T02:06:20;4.90;;;4.50;;
16246;SDS011;8231;50.866;7.944;2023-08-24T02:08:49;6.72;;;4.50;;
16246;SDS011;8231;50.866;7.944;2023-08-24T02:11:17;5.85;;;5.00;;
16246;SDS011;8231;50.866;7.944;2023-08-24T02:13:47;5.13;;;4.63;;
16246;SDS011;8231;50.866;7.944;2023-08-24T02:16:15;4.75;;;4.28;;
16246;SDS011;8231;50.866;7.944;2023-08-24T02:18:44;5.15;;;4.63;;
16246;SDS011;8231;50.866;7.944;2023-08-24T02:21:12;5.30;;;4.82;;
16246;SDS011;8231;50.866;7.944;2023-08-24T02:23:42;4.30;;;4.00;;
16246;SDS011;8231;50.866;7.944;2023-08-24T02:26:10;5.68;;;5.13;;
16246;SDS011;8231;50.866;7.944;2023-08-24T02:28:39;4.35;;;3.97;;
16246;SDS011;8231;50.866;7.944;2023-08-24T02:31:10;6.22;;;4.30;;
16246;SDS011;8231;50.866;7.944;2023-08-24T02:33:39;5.72;;;4.63;;
16246;SDS011;8231;50.866;7.944;2023-08-24T02:36:07;5.63;;;4.47;;
16246;SDS011;8231;50.866;7.944;2023-08-24T02:38:36;5.05;;;4.47;;
16246;SDS011;8231;50.866;7.944;2023-08-24T02:41:04;5.30;;;4.82;;
16246;SDS011;8231;50.866;7.944;2023-08-24T02:43:33;6.60;;;5.10;;
16246;SDS011;8231;50.866;7.944;2023-08-24T02:46:03;5.28;;;4.50;;
16246;SDS011;8231;50.866;7.944;2023-08-24T02:48:34;4.90;;;4.50;;
16246;SDS011;8231;50.866;7.944;2023-08-24T02:51:03;4.57;;;4.25;;
16246;SDS011;8231;50.866;7.944;2023-08-24T02:53:32;3.90;;;3.60;;
16246;SDS011;8231;50.866;7.944;2023-08-24T02:56:01;5.25;;;4.20;;
16246;SDS011;8231;50.866;7.944;2023-08-24T02:58:30;5.43;;;5.03;;
16246;SDS011;8231;50.866;7.944;2023-08-24T03:00:58;6.00;;;4.50;;
16246;SDS011;8231;50.866;7.944;2023-08-24T03:03:26;5.32;;;3.95;;
16246;SDS011;8231;50.866;7.944;2023-08-24T03:05:57;6.32;;;4.38;;
16246;SDS011;8231;50.866;7.944;2023-08-24T03:08:28;6.70;;;4.60;;
16246;SDS011;8231;50.866;7.944;2023-08-24T03:10:57;4.72;;;4.25;;
16246;SDS011;8231;50.866;7.944;2023-08-24T03:13:26;4.70;;;4.30;;
16246;SDS011;8231;50.866;7.944;2023-08-24T03:15:57;4.95;;;4.55;;
16246;SDS011;8231;50.866;7.944;2023-08-24T03:18:30;5.25;;;4.75;;
16246;SDS011;8231;50.866;7.944;2023-08-24T03:21:03;5.68;;;4.32;;
16246;SDS011;8231;50.866;7.944;2023-08-24T03:23:33;4.88;;;4.47;;
16246;SDS011;8231;50.866;7.944;2023-08-24T03:26:01;5.55;;;5.05;;
16246;SDS011;8231;50.866;7.944;2023-08-24T03:28:30;5.05;;;4.65;;
16246;SDS011;8231;50.866;7.944;2023-08-24T03:30:59;5.72;;;5.22;;
16246;SDS011;8231;50.866;7.944;2023-08-24T03:33:28;5.30;;;4.80;;
16246;SDS011;8231;50.866;7.944;2023-08-24T03:35:57;5.35;;;4.85;;
16246;SDS011;8231;50.866;7.944;2023-08-24T03:38:27;5.60;;;5.10;;
16246;SDS011;8231;50.866;7.944;2023-08-24T03:40:59;5.85;;;4.85;;
16246;SDS011;8231;50.866;7.944;2023-08-24T03:43:30;5.13;;;4.63;;
16246;SDS011;8231;50.866;7.944;2023-08-24T03:45:59;5.60;;;5.10;;
16246;SDS011;8231;50.866;7.944;2023-08-24T03:48:28;5.88;;;4.82;;
16246;SDS011;8231;50.866;7.944;2023-08-24T03:50:56;5.75;;;4.70;;
16246;SDS011;8231;50.866;7.944;2023-08-24T03:53:26;5.80;;;5.30;;
16246;SDS011;8231;50.866;7.944;2023-08-24T03:55:55;6.03;;;5.53;;
16246;SDS011;8231;50.866;7.944;2023-08-24T03:58:23;5.28;;;4.63;;
16246;SDS011;8231;50.866;7.944;2023-08-24T04:00:52;6.50;;;6.00;;
16246;SDS011;8231;50.866;7.944;2023-08-24T04:03:23;6.60;;;5.97;;
16246;SDS011;8231;50.866;7.944;2023-08-24T04:05:52;6.43;;;5.90;;
16246;SDS011;8231;50.866;7.944;2023-08-24T04:08:20;6.65;;;6.10;;
16246;SDS011;8231;50.866;7.944;2023-08-24T04:10:50;5.82;;;5.32;;
16246;SDS011;8231;50.866;7.944;2023-08-24T04:13:18;6.40;;;5.75;;
16246;SDS011;8231;50.866;7.944;2023-08-24T04:15:46;7.07;;;5.38;;
16246;SDS011;8231;50.866;7.944;2023-08-24T04:18:16;6.35;;;5.75;;
16246;SDS011;8231;50.866;7.944;2023-08-24T04:20:44;5.65;;;5.15;;
16246;SDS011;8231;50.866;7.944;2023-08-24T04:23:13;6.13;;;5.55;;
16246;SDS011;8231;50.866;7.944;2023-08-24T04:25:42;6.40;;;5.80;;
16246;SDS011;8231;50.866;7.944;2023-08-24T04:28:12;6.43;;;5.82;;
16246;SDS011;8231;50.866;7.944;2023-08-24T04:30:43;6.25;;;5.70;;
16246;SDS011;8231;50.866;7.944;2023-08-24T04:33:17;6.50;;;5.70;;
16246;SDS011;8231;50.866;7.944;2023-08-24T04:35:46;8.27;;;5.85;;
16246;SDS011;8231;50.866;7.944;2023-08-24T04:38:15;5.75;;;5.25;;
16246;SDS011;8231;50.866;7.944;2023-08-24T04:40:48;6.18;;;5.57;;
16246;SDS011;8231;50.866;7.944;2023-08-24T04:43:19;6.65;;;5.70;;
16246;SDS011;8231;50.866;7.944;2023-08-24T04:45:48;5.80;;;5.30;;
16246;SDS011;8231;50.866;7.944;2023-08-24T04:48:19;5.47;;;5.07;;
16246;SDS011;8231;50.866;7.944;2023-08-24T04:50:47;5.60;;;5.13;;
16246;SDS011;8231;50.866;7.944;2023-08-24T04:53:17;6.07;;;5.57;;
16246;SDS011;8231;50.866;7.944;2023-08-24T04:55:46;7.00;;;5.38;;
16246;SDS011;8231;50.866;7.944;2023-08-24T04:58:14;5.38;;;4.80;;
16246;SDS011;8231;50.866;7.944;2023-08-24T05:00:44;5.00;;;4.60;;
16246;SDS011;8231;50.866;7.944;2023-08-24T05:03:13;5.03;;;4.60;;
16246;SDS011;8231;50.866;7.944;2023-08-24T05:05:41;6.15;;;5.55;;
16246;SDS011;8231;50.866;7.944;2023-08-24T05:08:09;6.40;;;5.80;;
16246;SDS011;8231;50.866;7.944;2023-08-24T05:10:39;8.45;;;6.15;;
16246;SDS011;8231;50.866;7.944;2023-08-24T05:13:08;6.32;;;5.75;;
16246;SDS011;8231;50.866;7.944;2023-08-24T05:15:36;6.53;;;5.15;;
16246;SDS011;8231;50.866;7.944;2023-08-24T05:18:06;6.82;;;6.13;;
16246;SDS011;8231;50.866;7.944;2023-08-24T05:20:34;6.72;;;6.13;;
16246;SDS011;8231;50.866;7.944;2023-08-24T05:23:02;6.05;;;5.55;;
16246;SDS011;8231;50.866;7.944;2023-08-24T05:25:31;5.53;;;4.97;;
16246;SDS011;8231;50.866;7.944;2023-08-24T05:28:00;5.57;;;4.70;;
16246;SDS011;8231;50.866;7.944;2023-08-24T05:30:29;6.20;;;5.30;;
16246;SDS011;8231;50.866;7.944;2023-08-24T05:32:58;6.10;;;5.43;;
16246;SDS011;8231;50.866;7.944;2023-08-24T05:35:27;7.13;;;5.47;;
16246;SDS011;8231;50.866;7.944;2023-08-24T05:37:56;5.93;;;4.80;;
16246;SDS011;8231;50.866;7.944;2023-08-24T05:40:24;5.82;;;5.28;;
16246;SDS011;8231;50.866;7.944;2023-08-24T05:42:52;5.65;;;5.15;;
16246;SDS011;8231;50.866;7.944;2023-08-24T05:45:21;5.88;;;5.38;;
16246;SDS011;8231;50.866;7.944;2023-08-24T05:47:52;5.53;;;5.07;;
16246;SDS011;8231;50.866;7.944;2023-08-24T05:50:23;7.07;;;6.38;;
16246;SDS011;8231;50.866;7.944;2023-08-24T05:52:53;6.10;;;5.60;;
16246;SDS011;8231;50.866;7.944;2023-08-24T05:55:21;6.25;;;5.28;;
16246;SDS011;8231;50.866;7.944;2023-08-24T05:57:50;9.50;;;5.80;;
16246;SDS011;8231;50.866;7.944;2023-08-24T06:00:19;5.72;;;5.22;;
16246;SDS011;8231;50.866;7.944;2023-08-24T06:02:49;6.30;;;4.57;;
16246;SDS011;8231;50.866;7.944;2023-08-24T06:05:17;6.07;;;5.47;;
16246;SDS011;8231;50.866;7.944;2023-08-24T06:07:45;6.78;;;6.22;;
16246;SDS011;8231;50.866;7.944;2023-08-24T06:10:16;7.78;;;6.45;;
16246;SDS011;8231;50.866;7.944;2023-08-24T06:12:44;5.93;;;5.45;;
16246;SDS011;8231;50.866;7.944;2023-08-24T06:15:12;6.85;;;5.55;;
16246;SDS011;8231;50.866;7.944;2023-08-24T06:17:41;6.78;;;5.70;;
16246;SDS011;8231;50.866;7.944;2023-08-24T06:20:10;7.05;;;6.07;;
16246;SDS011;8231;50.866;7.944;2023-08-24T06:22:40;8.60;;;7.70;;
16246;SDS011;8231;50.866;7.944;2023-08-24T06:25:08;8.27;;;7.28;;
16246;SDS011;8231;50.866;7.944;2023-08-24T06:27:38;6.03;;;5.53;;
16246;SDS011;8231;50.866;7.944;2023-08-24T06:30:07;8.32;;;6.00;;
16246;SDS011;8231;50.866;7.944;2023-08-24T06:32:35;6.13;;;5.50;;
16246;SDS011;8231;50.866;7.944;2023-08-24T06:35:04;7.10;;;5.60;;
16246;SDS011;8231;50.866;7.944;2023-08-24T06:37:33;7.22;;;5.85;;
16246;SDS011;8231;50.866;7.944;2023-08-24T06:40:01;6.50;;;5.90;;
16246;SDS011;8231;50.866;7.944;2023-08-24T06:42:31;5.72;;;4.75;;
16246;SDS011;8231;50.866;7.944;2023-08-24T06:45:01;5.97;;;5.38;;
16246;SDS011;8231;50.866;7.944;2023-08-24T06:47:30;6.03;;;5.53;;
16246;SDS011;8231;50.866;7.944;2023-08-24T06:49:58;5.78;;;5.28;;
16246;SDS011;8231;50.866;7.944;2023-08-24T06:52:27;6.38;;;5.75;;
16246;SDS011;8231;50.866;7.944;2023-08-24T06:54:55;5.90;;;5.40;;
16246;SDS011;8231;50.866;7.944;2023-08-24T06:57:23;5.57;;;4.85;;
16246;SDS011;8231;50.866;7.944;2023-08-24T06:59:51;6.15;;;5.53;;
16246;SDS011;8231;50.866;7.944;2023-08-24T07:02:21;5.82;;;5.25;;
16246;SDS011;8231;50.866;7.944;2023-08-24T07:04:49;5.32;;;4.72;;
16246;SDS011;8231;50.866;7.944;2023-08-24T07:07:18;5.63;;;4.95;;
16246;SDS011;8231;50.866;7.944;2023-08-24T07:09:46;10.27;;;4.63;;
16246;SDS011;8231;50.866;7.944;2023-08-24T07:12:14;5.28;;;4.78;;
16246;SDS011;8231;50.866;7.944;2023-08-24T07:14:43;5.28;;;4.78;;
16246;SDS011;8231;50.866;7.944;2023-08-24T07:17:11;11.00;;;5.18;;
16246;SDS011;8231;50.866;7.944;2023-08-24T07:19:40;5.70;;;5.03;;
16246;SDS011;8231;50.866;7.944;2023-08-24T07:22:09;5.45;;;4.43;;
16246;SDS011;8231;50.866;7.944;2023-08-24T07:24:37;4.25;;;3.85;;
16246;SDS011;8231;50.866;7.944;2023-08-24T07:27:09;6.18;;;4.22;;
16246;SDS011;8231;50.866;7.944;2023-08-24T07:29:38;5.38;;;4.32;;
16246;SDS011;8231;50.866;7.944;2023-08-24T07:32:06;7.45;;;4.10;;
16246;SDS011;8231;50.866;7.944;2023-08-24T07:34:34;5.72;;;4.20;;
16246;SDS011;8231;50.866;7.944;2023-08-24T07:37:07;4.35;;;3.65;;
16246;SDS011;8231;50.866;7.944;2023-08-24T07:39:35;5.38;;;3.60;;
16246;SDS011;8231;50.866;7.944;2023-08-24T07:42:05;4.22;;;3.72;;
16246;SDS011;8231;50.866;7.944;2023-08-24T07:44:33;3.88;;;3.45;;
16246;SDS011;8231;50.866;7.944;2023-08-24T07:47:02;3.78;;;3.00;;
16246;SDS011;8231;50.866;7.944;2023-08-24T07:49:31;5.00;;;3.10;;
16246;SDS011;8231;50.866;7.944;2023-08-24T07:51:59;6.10;;;4.13;;
16246;SDS011;8231;50.866;7.944;2023-08-24T07:54:28;4.40;;;3.05;;
16246;SDS011;8231;50.866;7.944;2023-08-24T07:56:57;4.57;;;3.08;;
16246;SDS011;8231;50.866;7.944;2023-08-24T07:59:25;4.10;;;3.35;;
16246;SDS011;8231;50.866;7.944;2023-08-24T08:01:53;3.10;;;2.80;;
16246;SDS011;8231;50.866;7.944;2023-08-24T08:04:22;2.95;;;2.60;;
16246;SDS011;8231;50.866;7.944;2023-08-24T08:06:50;4.03;;;2.65;;
16246;SDS011;8231;50.866;7.944;2023-08-24T08:09:19;4.50;;;3.03;;
16246;SDS011;8231;50.866;7.944;2023-08-24T08:11:49;2.65;;;2.40;;
16246;SDS011;8231;50.866;7.944;2023-08-24T08:14:18;5.72;;;2.75;;
16246;SDS011;8231;50.866;7.944;2023-08-24T08:16:47;4.20;;;3.45;;
16246;SDS011;8231;50.866;7.944;2023-08-24T08:19:15;4.93;;;2.65;;
16246;SDS011;8231;50.866;7.944;2023-08-24T08:21:45;3.10;;;2.80;;
16246;SDS011;8231;50.866;7.944;2023-08-24T08:24:13;3.17;;;2.63;;
16246;SDS011;8231;50.866;7.944;2023-08-24T08:26:52;3.70;;;3.28;;
16246;SDS011;8231;50.866;7.944;2023-08-24T08:29:20;5.28;;;2.95;;
16246;SDS011;8231;50.866;7.944;2023-08-24T08:31:49;5.05;;;2.42;;
16246;SDS011;8231;50.866;7.944;2023-08-24T08:34:18;2.92;;;2.50;;
16246;SDS011;8231;50.866;7.944;2023-08-24T08:36:46;4.82;;;2.50;;
16246;SDS011;8231;50.866;7.944;2023-08-24T08:39:14;4.78;;;3.15;;
16246;SDS011;8231;50.866;7.944;2023-08-24T08:41:44;3.33;;;2.42;;
16246;SDS011;8231;50.866;7.944;2023-08-24T08:44:15;4.13;;;2.30;;
16246;SDS011;8231;50.866;7.944;2023-08-24T08:46:43;3.75;;;2.53;;
16246;SDS011;8231;50.866;7.944;2023-08-24T08:49:13;4.35;;;2.05;;
16246;SDS011;8231;50.866;7.944;2023-08-24T08:51:43;3.83;;;2.10;;
16246;SDS011;8231;50.866;7.944;2023-08-24T08:54:11;4.65;;;2.22;;
16246;SDS011;8231;50.866;7.944;2023-08-24T08:56:40;4.40;;;2.00;;
16246;SDS011;8231;50.866;7.944;2023-08-24T08:59:08;2.25;;;2.03;;
16246;SDS011;8231;50.866;7.944;2023-08-24T09:01:39;2.95;;;1.85;;
16246;SDS011;8231;50.866;7.944;2023-08-24T09:04:10;3.28;;;2.45;;
16246;SDS011;8231;50.866;7.944;2023-08-24T09:06:39;3.13;;;2.25;;
16246;SDS011;8231;50.866;7.944;2023-08-24T09:09:08;3.95;;;2.45;;
16246;SDS011;8231;50.866;7.944;2023-08-24T09:11:36;2.15;;;1.90;;
16246;SDS011;8231;50.866;7.944;2023-08-24T09:14:06;2.45;;;2.20;;
16246;SDS011;8231;50.866;7.944;2023-08-24T09:16:34;3.72;;;2.00;;
16246;SDS011;8231;50.866;7.944;2023-08-24T09:19:05;2.97;;;2.08;;
16246;SDS011;8231;50.866;7.944;2023-08-24T09:21:36;3.55;;;2.33;;
16246;SDS011;8231;50.866;7.944;2023-08-24T09:24:05;2.60;;;2.20;;
16246;SDS011;8231;50.866;7.944;2023-08-24T09:26:34;2.58;;;2.38;;
16246;SDS011;8231;50.866;7.944;2023-08-24T09:29:12;4.13;;;2.40;;
16246;SDS011;8231;50.866;7.944;2023-08-24T09:31:42;2.75;;;2.13;;
16246;SDS011;8231;50.866;7.944;2023-08-24T09:34:12;2.40;;;2.20;;
16246;SDS011;8231;50.866;7.944;2023-08-24T09:36:41;2.03;;;1.80;;
16246;SDS011;8231;50.866;7.944;2023-08-24T09:39:12;2.05;;;1.88;;
16246;SDS011;8231;50.866;7.944;2023-08-24T09:41:46;2.83;;;2.58;;
16246;SDS011;8231;50.866;7.944;2023-08-24T09:44:16;3.08;;;2.47;;
16246;SDS011;8231;50.866;7.944;2023-08-24T09:46:45;2.95;;;2.33;;
16246;SDS011;8231;50.866;7.944;2023-08-24T09:49:15;3.95;;;2.45;;
16246;SDS011;8231;50.866;7.944;2023-08-24T09:51:43;3.88;;;2.33;;
16246;SDS011;8231;50.866;7.944;2023-08-24T09:54:12;2.97;;;2.67;;
16246;SDS011;8231;50.866;7.944;2023-08-24T09:56:47;3.33;;;2.92;;
16246;SDS011;8231;50.866;7.944;2023-08-24T09:59:18;2.70;;;2.38;;
16246;SDS011;8231;50.866;7.944;2023-08-24T10:01:51;4.25;;;2.42;;
16246;SDS011;8231;50.866;7.944;2023-08-24T10:04:23;3.95;;;2.95;;
16246;SDS011;8231;50.866;7.944;2023-08-24T10:06:53;3.05;;;2.10;;
16246;SDS011;8231;50.866;7.944;2023-08-24T10:09:27;3.15;;;1.90;;
16246;SDS011;8231;50.866;7.944;2023-08-24T10:12:03;4.75;;;2.55;;
16246;SDS011;8231;50.866;7.944;2023-08-24T10:14:35;4.03;;;2.55;;
16246;SDS011;8231;50.866;7.944;2023-08-24T10:17:09;3.45;;;2.15;;
16246;SDS011;8231;50.866;7.944;2023-08-24T10:19:42;2.47;;;2.22;;
16246;SDS011;8231;50.866;7.944;2023-08-24T10:22:11;2.03;;;1.90;;
16246;SDS011;8231;50.866;7.944;2023-08-24T10:24:40;2.83;;;2.25;;
16246;SDS011;8231;50.866;7.944;2023-08-24T10:27:11;2.53;;;2.33;;
16246;SDS011;8231;50.866;7.944;2023-08-24T10:29:40;3.00;;;2.25;;
16246;SDS011;8231;50.866;7.944;2023-08-24T10:32:08;2.90;;;2.22;;
16246;SDS011;8231;50.866;7.944;2023-08-24T10:34:37;2.35;;;2.15;;
16246;SDS011;8231;50.866;7.944;2023-08-24T10:37:10;2.67;;;2.10;;
16246;SDS011;8231;50.866;7.944;2023-08-24T10:39:43;3.92;;;2.38;;
16246;SDS011;8231;50.866;7.944;2023-08-24T10:42:13;5.47;;;2.40;;
16246;SDS011;8231;50.866;7.944;2023-08-24T10:44:43;5.03;;;2.50;;
16246;SDS011;8231;50.866;7.944;2023-08-24T10:47:14;3.65;;;1.88;;
16246;SDS011;8231;50.866;7.944;2023-08-24T10:49:43;30.48;;;3.58;;
16246;SDS011;8231;50.866;7.944;2023-08-24T10:52:25;3.65;;;2.50;;
16246;SDS011;8231;50.866;7.944;2023-08-24T10:55:00;2.67;;;2.28;;
16246;SDS011;8231;50.866;7.944;2023-08-24T10:57:37;2.08;;;1.88;;
16246;SDS011;8231;50.866;7.944;2023-08-24T11:00:10;4.57;;;2.50;;
16246;SDS011;8231;50.866;7.944;2023-08-24T11:02:43;3.20;;;2.00;;
16246;SDS011;8231;50.866;7.944;2023-08-24T11:05:16;1.75;;;1.65;;
16246;SDS011;8231;50.866;7.944;2023-08-24T11:07:54;5.57;;;2.00;;
16246;SDS011;8231;50.866;7.944;2023-08-24T11:10:23;2.63;;;2.28;;
16246;SDS011;8231;50.866;7.944;2023-08-24T11:13:11;2.85;;;2.28;;
16246;SDS011;8231;50.866;7.944;2023-08-24T11:15:41;2.67;;;2.03;;
16246;SDS011;8231;50.866;7.944;2023-08-24T11:18:11;3.42;;;2.20;;
16246;SDS011;8231;50.866;7.944;2023-08-24T11:20:47;3.20;;;2.47;;
16246;SDS011;8231;50.866;7.944;2023-08-24T11:23:18;2.42;;;1.85;;
16246;SDS011;8231;50.866;7.944;2023-08-24T11:25:49;5.60;;;2.28;;
16246;SDS011;8231;50.866;7.944;2023-08-24T11:28:21;2.10;;;1.90;;
16246;SDS011;8231;50.866;7.944;2023-08-24T11:30:51;2.47;;;1.92;;
16246;SDS011;8231;50.866;7.944;2023-08-24T11:33:29;2.88;;;1.80;;
16246;SDS011;8231;50.866;7.944;2023-08-24T11:35:59;3.72;;;2.00;;
16246;SDS011;8231;50.866;7.944;2023-08-24T11:38:40;2.45;;;2.03;;
16246;SDS011;8231;50.866;7.944;2023-08-24T11:41:12;3.90;;;2.35;;
16246;SDS011;8231;50.866;7.944;2023-08-24T11:43:41;4.78;;;2.55;;
16246;SDS011;8231;50.866;7.944;2023-08-24T11:46:10;3.47;;;2.20;;
16246;SDS011;8231;50.866;7.944;2023-08-24T11:48:38;2.58;;;1.98;;
16246;SDS011;8231;50.866;7.944;2023-08-24T11:51:08;4.25;;;2.25;;
16246;SDS011;8231;50.866;7.944;2023-08-24T11:53:36;2.95;;;2.45;;
16246;SDS011;8231;50.866;7.944;2023-08-24T11:56:09;2.83;;;2.22;;
16246;SDS011;8231;50.866;7.944;2023-08-24T11:58:40;3.35;;;2.08;;
16246;SDS011;8231;50.866;7.944;2023-08-24T12:01:09;2.92;;;2.28;;
16246;SDS011;8231;50.866;7.944;2023-08-24T12:03:39;2.35;;;2.00;;
16246;SDS011;8231;50.866;7.944;2023-08-24T12:06:09;2.55;;;1.95;;
16246;SDS011;8231;50.866;7.944;2023-08-24T12:08:39;3.72;;;2.17;;
16246;SDS011;8231;50.866;7.944;2023-08-24T12:11:14;3.05;;;2.22;;
16246;SDS011;8231;50.866;7.944;2023-08-24T12:13:45;4.90;;;2.28;;
16246;SDS011;8231;50.866;7.944;2023-08-24T12:16:15;4.18;;;2.45;;
16246;SDS011;8231;50.866;7.944;2023-08-24T12:18:48;4.55;;;1.85;;
16246;SDS011;8231;50.866;7.944;2023-08-24T12:21:22;2.72;;;2.03;;
16246;SDS011;8231;50.866;7.944;2023-08-24T12:23:57;5.72;;;2.30;;
16246;SDS011;8231;50.866;7.944;2023-08-24T12:26:28;2.70;;;2.50;;
16246;SDS011;8231;50.866;7.944;2023-08-24T12:28:59;3.45;;;2.35;;
16246;SDS011;8231;50.866;7.944;2023-08-24T12:31:30;2.78;;;2.28;;
16246;SDS011;8231;50.866;7.944;2023-08-24T12:33:59;4.18;;;2.20;;
16246;SDS011;8231;50.866;7.944;2023-08-24T12:36:30;2.67;;;2.40;;
16246;SDS011;8231;50.866;7.944;2023-08-24T12:39:00;3.20;;;2.08;;
16246;SDS011;8231;50.866;7.944;2023-08-24T12:41:31;3.80;;;2.05;;
16246;SDS011;8231;50.866;7.944;2023-08-24T12:44:00;3.08;;;2.08;;
16246;SDS011;8231;50.866;7.944;2023-08-24T12:46:32;2.97;;;2.33;;
16246;SDS011;8231;50.866;7.944;2023-08-24T12:49:01;2.88;;;2.33;;
16246;SDS011;8231;50.866;7.944;2023-08-24T12:51:29;3.83;;;2.25;;
16246;SDS011;8231;50.866;7.944;2023-08-24T12:53:57;2.75;;;2.30;;
16246;SDS011;8231;50.866;7.944;2023-08-24T12:56:26;3.97;;;2.17;;
16246;SDS011;8231;50.866;7.944;2023-08-24T12:58:55;2.17;;;2.03;;
16246;SDS011;8231;50.866;7.944;2023-08-24T13:01:23;2.90;;;2.40;;
16246;SDS011;8231;50.866;7.944;2023-08-24T13:03:52;3.30;;;2.10;;
16246;SDS011;8231;50.866;7.944;2023-08-24T13:06:20;2.30;;;2.10;;
16246;SDS011;8231;50.866;7.944;2023-08-24T13:08:50;2.47;;;2.00;;
16246;SDS011;8231;50.866;7.944;2023-08-24T13:11:20;2.22;;;2.03;;
16246;SDS011;8231;50.866;7.944;2023-08-24T13:13:49;3.10;;;2.22;;
16246;SDS011;8231;50.866;7.944;2023-08-24T13:16:19;3.63;;;2.40;;
16246;SDS011;8231;50.866;7.944;2023-08-24T13:18:47;2.20;;;1.90;;
16246;SDS011;8231;50.866;7.944;2023-08-24T13:21:15;2.35;;;2.17;;
16246;SDS011;8231;50.866;7.944;2023-08-24T13:23:45;2.97;;;2.10;;
16246;SDS011;8231;50.866;7.944;2023-08-24T13:26:17;3.50;;;2.50;;
16246;SDS011;8231;50.866;7.944;2023-08-24T13:28:46;3.90;;;2.53;;
16246;SDS011;8231;50.866;7.944;2023-08-24T13:31:15;3.70;;;2.35;;
16246;SDS011;8231;50.866;7.944;2023-08-24T13:33:45;3.70;;;1.98;;
16246;SDS011;8231;50.866;7.944;2023-08-24T13:36:13;2.65;;;2.45;;
16246;SDS011;8231;50.866;7.944;2023-08-24T13:38:42;2.63;;;2.28;;
16246;SDS011;8231;50.866;7.944;2023-08-24T13:41:11;3.22;;;2.40;;
16246;SDS011;8231;50.866;7.944;2023-08-24T13:43:39;4.15;;;2.42;;
16246;SDS011;8231;50.866;7.944;2023-08-24T13:46:08;4.32;;;2.25;;
16246;SDS011;8231;50.866;7.944;2023-08-24T13:48:37;2.55;;;2.30;;
16246;SDS011;8231;50.866;7.944;2023-08-24T13:51:07;4.30;;;2.20;;
16246;SDS011;8231;50.866;7.944;2023-08-24T13:53:35;2.75;;;2.40;;
16246;SDS011;8231;50.866;7.944;2023-08-24T13:56:05;3.60;;;2.22;;
16246;SDS011;8231;50.866;7.944;2023-08-24T13:58:33;3.20;;;2.13;;
16246;SDS011;8231;50.866;7.944;2023-08-24T14:01:02;4.07;;;2.45;;
16246;SDS011;8231;50.866;7.944;2023-08-24T14:03:30;3.10;;;2.63;;
16246;SDS011;8231;50.866;7.944;2023-08-24T14:05:59;2.53;;;2.33;;
16246;SDS011;8231;50.866;7.944;2023-08-24T14:08:29;3.08;;;2.15;;
16246;SDS011;8231;50.866;7.944;2023-08-24T14:10:58;2.60;;;2.40;;
16246;SDS011;8231;50.866;7.944;2023-08-24T14:13:26;2.38;;;2.15;;
16246;SDS011;8231;50.866;7.944;2023-08-24T14:15:55;3.72;;;2.08;;
16246;SDS011;8231;50.866;7.944;2023-08-24T14:18:23;3.38;;;2.65;;
16246;SDS011;8231;50.866;7.944;2023-08-24T14:20:52;2.78;;;2.58;;
16246;SDS011;8231;50.866;7.944;2023-08-24T14:23:20;3.25;;;2.60;;
16246;SDS011;8231;50.866;7.944;2023-08-24T14:25:50;3.40;;;2.10;;
16246;SDS011;8231;50.866;7.944;2023-08-24T14:28:19;3.25;;;2.70;;
16246;SDS011;8231;50.866;7.944;2023-08-24T14:30:48;2.58;;;2.38;;
16246;SDS011;8231;50.866;7.944;2023-08-24T14:33:17;2.47;;;2.28;;
16246;SDS011;8231;50.866;7.944;2023-08-24T14:35:49;3.60;;;2.67;;
16246;SDS011;8231;50.866;7.944;2023-08-24T14:38:18;3.08;;;2.83;;
16246;SDS011;8231;50.866;7.944;2023-08-24T14:40:46;2.70;;;2.08;;
16246;SDS011;8231;50.866;7.944;2023-08-24T14:43:16;3.25;;;2.58;;
16246;SDS011;8231;50.866;7.944;2023-08-24T14:45:44;3.75;;;2.72;;
16246;SDS011;8231;50.866;7.944;2023-08-24T14:48:13;2.60;;;2.38;;
16246;SDS011;8231;50.866;7.944;2023-08-24T14:50:42;4.03;;;2.53;;
16246;SDS011;8231;50.866;7.944;2023-08-24T14:53:10;2.67;;;2.35;;
16246;SDS011;8231;50.866;7.944;2023-08-24T15:03:49;2.65;;;2.45;;
16246;SDS011;8231;50.866;7.944;2023-08-24T15:06:18;3.33;;;2.70;;
16246;SDS011;8231;50.866;7.944;2023-08-24T15:08:49;3.42;;;3.03;;
16246;SDS011;8231;50.866;7.944;2023-08-24T15:11:17;3.53;;;2.40;;
16246;SDS011;8231;50.866;7.944;2023-08-24T15:13:49;4.22;;;2.28;;
16246;SDS011;8231;50.866;7.944;2023-08-24T15:16:40;2.90;;;2.58;;
16246;SDS011;8231;50.866;7.944;2023-08-24T15:19:09;3.55;;;2.40;;
16246;SDS011;8231;50.866;7.944;2023-08-24T15:21:38;3.30;;;2.63;;
16246;SDS011;8231;50.866;7.944;2023-08-24T15:24:06;2.58;;;2.38;;